Charlottetown, Canada
Current Conditions -  °F | °C
As of 9:29 PM on Friday 24 Oct 2014 (Local Time) from CYYG Reporting Station
Rain Showers Rain Showers  
Wind Chill: 52°   Ceiling: 300
Heat Index: 52°   Visibility: 2mi
Dew Point: 52°   Wind: 13mph
Humidity: 100%   Direction: 10°N
Pressure: 29.45"   Gusts: NA
Location:  46.24°N, 63.13°W
Report Text: CYYG 250029Z 01011KT 2SM -SHRA BR BKN003 OVC006 11/11 A2945 RMK SF7SF1 SLP974 DENSITY ALT 200FT
Loading
Personal Weather Stations






























Interactive Weather Map
Tropical Storm Tracking
New forecast layout! Learn more

10-Day Weather Forecast

Advertisements
Track Severe Weather on mobile